Time;durP1;ratioP1;P1;durP2;ratioP2;P2;SDS_P1;SDS_P2;PMS_P1;PMS_P2;Temp;Humidity;BMP_temperature;BMP_pressure;BME280_temperature;BME280_humidity;BME280_pressure;Samples;Min_cycle;Max_cycle;Signal;HPM_P1;HPM_P2
2023/08/27 00:01:50;;;;;;;1.08;0.70;;;12.70;99.90;;;;;;5093491;28;20052;-92
2023/08/27 00:04:42;;;;;;;1053.47;558.60;;;12.70;99.90;;;;;;5092026;28;20060;-90
2023/08/27 00:07:18;;;;;;;1057.17;476.63;;;12.80;99.90;;;;;;5082086;28;20105;-89
2023/08/27 00:09:49;;;;;;;1081.50;500.63;;;12.40;99.90;;;;;;5089669;28;20049;-92
2023/08/27 00:12:40;;;;;;;1082.97;531.87;;;12.70;99.90;;;;;;5074660;28;20135;-91
2023/08/27 00:15:19;;;;;;;973.47;428.20;;;12.70;99.90;;;;;;5069155;28;20283;-91
2023/08/27 00:17:48;;;;;;;983.23;546.03;;;12.70;99.90;;;;;;5009646;28;20928;-92
2023/08/27 00:20:34;;;;;;;985.17;499.13;;;12.60;99.90;;;;;;5007746;28;20328;-92
2023/08/27 00:23:13;;;;;;;915.17;514.47;;;12.60;99.90;;;;;;5001283;28;20392;-91
2023/08/27 00:25:48;;;;;;;1115.93;539.93;;;12.60;99.90;;;;;;5027957;28;20308;-94
2023/08/27 00:32:47;;;;;;;924.87;431.60;;;12.60;99.90;;;;;;5019155;28;20308;-93
2023/08/27 00:35:18;;;;;;;775.90;319.23;;;12.50;99.90;;;;;;4984659;28;20292;-94
2023/08/27 00:37:52;;;;;;;889.63;363.43;;;12.50;99.90;;;;;;5018829;28;20369;-93
2023/08/27 00:40:41;;;;;;;;;;;;;;;;;;;;;
2023/08/27 00:43:17;;;;;;;482.93;190.90;;;12.30;99.90;;;;;;5037385;28;20399;-94
2023/08/27 00:46:09;;;;;;;540.87;216.07;;;12.50;99.90;;;;;;5031763;28;20291;-93
2023/08/27 00:49:04;;;;;;;763.83;386.40;;;12.40;99.90;;;;;;4992390;28;20303;-94
2023/08/27 00:55:39;;;;;;;871.10;426.47;;;12.40;99.90;;;;;;4934615;29;20290;-93
2023/08/27 01:01:00;;;;;;;513.73;189.53;;;12.40;99.90;;;;;;4948945;28;20059;-94
2023/08/27 01:03:27;;;;;;;595.27;303.23;;;12.40;99.90;;;;;;4959299;28;20663;-92
2023/08/27 01:05:56;;;;;;;506.60;203.63;;;12.40;99.90;;;;;;4941181;29;20303;-93
2023/08/27 01:09:41;;;;;;;410.73;176.77;;;12.30;99.90;;;;;;4962782;28;20337;-92
2023/08/27 01:12:36;;;;;;;407.03;175.57;;;12.40;99.90;;;;;;4863479;29;20329;-91
2023/08/27 01:15:23;;;;;;;403.93;176.23;;;12.40;99.90;;;;;;4873306;29;20643;-92
2023/08/27 01:17:51;;;;;;;404.80;176.70;;;12.40;99.90;;;;;;4863434;29;20316;-92
2023/08/27 01:20:29;;;;;;;;;;;;;;;;;;;;;
2023/08/27 01:23:08;;;;;;;415.60;177.73;;;12.40;99.90;;;;;;4870937;29;20368;-92
2023/08/27 01:25:53;;;;;;;411.37;177.97;;;12.40;99.90;;;;;;4870337;29;20306;-92
2023/08/27 01:32:55;;;;;;;412.77;178.93;;;12.40;99.90;;;;;;4973980;28;20311;-94
2023/08/27 01:35:21;;;;;;;410.50;177.73;;;12.40;99.90;;;;;;5010318;28;20400;-86
2023/08/27 01:37:47;;;;;;;419.93;177.43;;;12.40;99.90;;;;;;5012428;28;20304;-93
2023/08/27 01:40:13;;;;;;;406.60;175.77;;;12.40;99.90;;;;;;4996900;28;20731;-93
2023/08/27 01:42:42;;;;;;;399.20;175.57;;;12.40;99.90;;;;;;5040754;28;20294;-92
2023/08/27 01:45:09;;;;;;;403.67;176.30;;;12.50;99.90;;;;;;5085320;28;20566;-92
2023/08/27 01:47:35;;;;;;;400.87;175.70;;;12.40;99.90;;;;;;5089387;28;20302;-93
2023/08/27 01:50:01;;;;;;;407.07;176.93;;;12.50;99.90;;;;;;5094312;28;20306;-93
2023/08/27 01:52:27;;;;;;;406.37;177.23;;;12.50;99.90;;;;;;5095377;28;20048;-93
2023/08/27 01:54:53;;;;;;;426.57;179.90;;;12.50;99.90;;;;;;5077167;28;20044;-94
2023/08/27 01:57:19;;;;;;;422.83;179.87;;;12.50;99.90;;;;;;5092696;28;20040;-93
2023/08/27 01:59:45;;;;;;;425.33;179.67;;;12.50;99.90;;;;;;5093546;28;20109;-94
2023/08/27 02:02:13;;;;;;;411.60;177.80;;;12.50;99.90;;;;;;5076289;28;20436;-93
2023/08/27 02:04:44;;;;;;;424.23;179.80;;;12.50;99.90;;;;;;5079921;28;20049;-92
2023/08/27 02:07:10;;;;;;;413.23;178.03;;;12.50;99.90;;;;;;5089010;28;20942;-93
2023/08/27 02:09:42;;;;;;;411.10;177.37;;;12.10;99.90;;;;;;5093504;28;20320;-93
2023/08/27 02:12:08;;;;;;;420.90;180.10;;;12.30;99.90;;;;;;5092957;28;20075;-93
2023/08/27 02:14:36;;;;;;;425.67;181.13;;;12.40;99.90;;;;;;5072893;28;20348;-93
2023/08/27 02:17:02;;;;;;;430.83;182.33;;;12.40;99.90;;;;;;5073326;28;20051;-94
2023/08/27 02:19:28;;;;;;;432.50;180.70;;;12.40;99.90;;;;;;5085799;28;20293;-93
2023/08/27 02:21:59;;;;;;;426.03;181.90;;;12.40;99.90;;;;;;5092813;28;20040;-95
2023/08/27 02:24:34;;;;;;;418.80;178.37;;;12.30;99.90;;;;;;5088216;28;20046;-94
2023/08/27 02:27:08;;;;;;;426.97;181.73;;;12.30;99.90;;;;;;5052261;28;20300;-93
2023/08/27 02:33:20;;;;;;;418.23;179.70;;;12.50;99.90;;;;;;5053236;28;20310;-93
2023/08/27 02:35:46;;;;;;;419.77;179.77;;;12.30;99.90;;;;;;5020212;28;20315;-94
2023/08/27 02:38:37;;;;;;;418.43;176.83;;;12.20;99.90;;;;;;5052867;28;20291;-94
2023/08/27 02:41:13;;;;;;;424.53;179.70;;;12.30;99.90;;;;;;5054185;28;20318;-93
2023/08/27 02:43:53;;;;;;;410.33;176.20;;;12.20;99.90;;;;;;5042701;28;20306;-94
2023/08/27 02:46:30;;;;;;;423.43;177.80;;;12.20;99.90;;;;;;5045872;28;20307;-93
2023/08/27 02:49:00;;;;;;;444.03;180.30;;;12.50;99.90;;;;;;5049160;28;20309;-93
2023/08/27 02:51:30;;;;;;;436.63;179.70;;;12.10;99.90;;;;;;5069361;28;20372;-92
2023/08/27 02:54:06;;;;;;;424.90;178.57;;;12.00;99.90;;;;;;5040052;28;20841;-92
2023/08/27 02:56:43;;;;;;;423.40;178.63;;;12.00;99.90;;;;;;5030246;28;20307;-93
2023/08/27 02:59:12;;;;;;;409.97;175.77;;;12.00;99.90;;;;;;5093231;28;20298;-93
2023/08/27 03:01:41;;;;;;;413.23;176.60;;;12.00;99.90;;;;;;5093328;28;20298;-94
2023/08/27 03:04:10;;;;;;;409.40;175.40;;;12.00;99.90;;;;;;5085976;28;20302;-94
2023/08/27 03:06:41;;;;;;;412.47;176.23;;;12.00;99.90;;;;;;5096497;28;20351;-94
2023/08/27 03:09:10;;;;;;;421.80;177.07;;;12.00;99.90;;;;;;5094757;28;20305;-92
2023/08/27 03:11:43;;;;;;;424.07;178.33;;;11.90;99.90;;;;;;5100205;28;20317;-94
2023/08/27 03:14:18;;;;;;;431.13;178.63;;;11.90;99.90;;;;;;5099525;28;20310;-94
2023/08/27 03:16:43;;;;;;;440.93;179.13;;;11.80;99.90;;;;;;5083727;28;20355;-92
2023/08/27 03:19:12;;;;;;;450.53;182.63;;;11.80;99.90;;;;;;5105803;28;20329;-93
2023/08/27 03:21:46;;;;;;;442.23;178.77;;;11.80;99.90;;;;;;5090922;28;20302;-93
2023/08/27 03:24:13;;;;;;;437.10;179.07;;;11.80;99.90;;;;;;5098725;28;20300;-89
2023/08/27 03:27:01;;;;;;;440.48;182.85;;;11.80;99.90;;;;;;5086062;28;20395;-91
2023/08/27 03:33:27;;;;;;;441.87;178.67;;;11.80;99.90;;;;;;5086969;28;20317;-89
2023/08/27 03:35:56;;;;;;;447.87;180.53;;;11.80;99.90;;;;;;5097898;28;20342;-89
2023/08/27 03:38:23;;;;;;;450.87;180.77;;;11.90;99.90;;;;;;5138309;22;20318;-90
2023/08/27 03:40:55;;;;;;;448.50;179.33;;;12.00;99.90;;;;;;5058510;28;20307;-92
2023/08/27 03:43:21;;;;;;;452.37;182.13;;;11.80;99.90;;;;;;5071365;28;20299;-88
2023/08/27 03:45:47;;;;;;;457.13;181.33;;;11.80;99.90;;;;;;5054934;28;20309;-90
2023/08/27 03:48:16;;;;;;;448.17;181.60;;;11.90;99.90;;;;;;5074859;28;20119;-90
2023/08/27 03:50:46;;;;;;;444.27;180.60;;;11.80;99.90;;;;;;5071656;28;20379;-89
2023/08/27 03:53:29;;;;;;;443.23;180.87;;;11.80;99.90;;;;;;5057444;28;20565;-90
2023/08/27 03:55:55;;;;;;;445.77;181.80;;;11.90;99.90;;;;;;5072779;28;20465;-91
2023/08/27 03:58:23;;;;;;;444.90;180.70;;;11.90;99.90;;;;;;5073607;28;20317;-88
2023/08/27 04:00:52;;;;;;;443.57;180.60;;;11.90;99.90;;;;;;5060625;28;20378;-89
2023/08/27 04:03:22;;;;;;;443.17;181.37;;;11.90;99.90;;;;;;5076814;28;20049;-90
2023/08/27 04:05:55;;;;;;;443.87;180.40;;;12.00;99.90;;;;;;5073502;28;20453;-90
2023/08/27 04:08:23;;;;;;;433.80;179.57;;;12.00;99.90;;;;;;5077773;28;20037;-86
2023/08/27 04:11:04;;;;;;;415.87;179.03;;;11.70;99.90;;;;;;5061233;28;20318;-89
2023/08/27 04:13:33;;;;;;;405.30;178.10;;;12.00;99.90;;;;;;5057510;28;20504;-90
2023/08/27 04:16:11;;;;;;;419.27;179.37;;;12.10;99.90;;;;;;5059424;28;20072;-91
2023/08/27 04:18:42;;;;;;;418.13;178.07;;;12.20;99.90;;;;;;5075814;28;20302;-91
2023/08/27 04:21:17;;;;;;;422.10;178.93;;;12.10;99.90;;;;;;5075990;28;20299;-91
2023/08/27 04:23:48;;;;;;;414.83;176.83;;;12.20;99.90;;;;;;5073973;28;20428;-91
2023/08/27 04:26:15;;;;;;;417.43;178.43;;;12.30;99.90;;;;;;5075015;28;20298;-90
2023/08/27 04:28:43;;;;;;;410.17;177.47;;;12.30;99.90;;;;;;5075984;28;20804;-89
2023/08/27 04:31:18;;;;;;;416.17;179.77;;;12.30;99.90;;;;;;5061753;28;20307;-90
2023/08/27 04:33:50;;;;;;;426.83;180.80;;;12.40;99.90;;;;;;5068895;28;20350;-92
2023/08/27 04:36:19;;;;;;;433.17;179.50;;;12.20;99.90;;;;;;5076803;28;20295;-93
2023/08/27 04:38:48;;;;;;;424.87;179.13;;;12.30;99.90;;;;;;5028547;28;20303;-93
2023/08/27 04:41:14;;;;;;;424.73;180.67;;;12.40;99.90;;;;;;5022694;28;20404;-92
2023/08/27 04:43:42;;;;;;;414.00;177.00;;;12.40;99.90;;;;;;5043300;28;20303;-89
2023/08/27 04:46:13;;;;;;;411.37;178.63;;;12.40;99.90;;;;;;5029315;28;20037;-91
2023/08/27 04:48:42;;;;;;;410.43;176.70;;;12.40;99.90;;;;;;5042384;28;20337;-92
2023/08/27 04:51:08;;;;;;;409.10;177.30;;;12.40;99.90;;;;;;5044967;28;20307;-92
2023/08/27 04:53:34;;;;;;;409.60;177.50;;;12.40;99.90;;;;;;5032053;28;20055;-91
2023/08/27 04:56:03;;;;;;;409.17;176.57;;;12.40;99.90;;;;;;5063333;28;20115;-92
2023/08/27 04:58:32;;;;;;;407.87;176.93;;;12.40;99.90;;;;;;5061440;28;20051;-93
2023/08/27 05:12:01;;;;;;;424.47;182.47;;;12.40;99.90;;;;;;5047648;28;20318;-93
2023/08/27 05:14:27;;;;;;;428.33;181.20;;;12.40;99.90;;;;;;5036052;28;20714;-91
2023/08/27 05:16:53;;;;;;;423.03;181.00;;;12.40;99.90;;;;;;5020477;28;20072;-93
2023/08/27 05:19:19;;;;;;;420.10;181.20;;;12.40;99.90;;;;;;5053730;28;20064;-92
2023/08/27 05:21:44;;;;;;;412.30;178.43;;;12.40;99.90;;;;;;5037297;28;20124;-92
2023/08/27 05:24:10;;;;;;;411.00;176.87;;;12.40;99.90;;;;;;5055331;28;20091;-94
2023/08/27 05:26:38;;;;;;;413.50;177.80;;;12.30;99.90;;;;;;5020458;28;20396;-93
2023/08/27 05:29:04;;;;;;;407.60;176.97;;;12.40;99.90;;;;;;5036469;28;20084;-92
2023/08/27 05:31:30;;;;;;;402.27;176.97;;;12.40;99.90;;;;;;5018435;28;20342;-91
2023/08/27 05:33:56;;;;;;;401.50;175.63;;;12.40;99.90;;;;;;5054857;28;20041;-90
2023/08/27 05:36:22;;;;;;;399.73;177.63;;;12.40;99.90;;;;;;5053136;28;20352;-91
2023/08/27 05:38:49;;;;;;;402.57;176.23;;;13.00;99.90;;;;;;5070944;28;20492;-91
2023/08/27 05:41:15;;;;;;;404.97;178.07;;;12.50;99.90;;;;;;5073660;28;20361;-92
2023/08/27 05:43:43;;;;;;;399.30;176.33;;;12.50;99.90;;;;;;5056128;28;20310;-92
2023/08/27 05:46:10;;;;;;;399.70;178.17;;;12.60;99.90;;;;;;5055117;28;20447;-91
2023/08/27 05:48:38;;;;;;;395.57;177.03;;;12.70;99.90;;;;;;5055993;28;20040;-91
2023/08/27 05:51:04;;;;;;;392.53;176.47;;;12.80;99.90;;;;;;5054932;28;20778;-91
2023/08/27 05:53:32;;;;;;;382.33;171.57;;;12.90;99.90;;;;;;5036441;28;20311;-90
2023/08/27 05:55:58;;;;;;;413.17;177.87;;;13.10;99.90;;;;;;5050729;28;20512;-91
2023/08/27 05:58:23;;;;;;;538.07;195.37;;;13.20;99.90;;;;;;5057335;28;20542;-89
2023/08/27 06:00:56;;;;;;;538.50;188.73;;;13.40;99.90;;;;;;5046255;28;20082;-93
2023/08/27 06:03:22;;;;;;;552.07;197.27;;;13.60;99.90;;;;;;5072531;28;20040;-91
2023/08/27 06:05:50;;;;;;;502.93;188.47;;;13.70;99.90;;;;;;5072525;28;21613;-91
2023/08/27 06:08:16;;;;;;;688.57;240.30;;;13.80;99.90;;;;;;5056411;28;20311;-90
2023/08/27 06:10:45;;;;;;;738.63;313.53;;;14.00;99.90;;;;;;5072027;28;20299;-89
2023/08/27 06:13:11;;;;;;;817.80;486.73;;;14.00;99.90;;;;;;5038516;28;20315;-91
2023/08/27 06:15:39;;;;;;;837.43;476.03;;;14.00;99.90;;;;;;5053830;28;20394;-89
2023/08/27 06:18:07;;;;;;;858.00;348.10;;;14.00;99.90;;;;;;5038291;28;20048;-91
2023/08/27 06:20:33;;;;;;;835.50;390.30;;;14.10;99.90;;;;;;5039276;28;20720;-91
2023/08/27 06:23:00;;;;;;;752.77;343.73;;;14.10;99.90;;;;;;5053929;28;20306;-89
2023/08/27 06:25:26;;;;;;;805.73;320.43;;;14.20;99.90;;;;;;5071862;28;20371;-88
2023/08/27 06:27:55;;;;;;;844.63;436.87;;;14.20;99.90;;;;;;5055731;28;20411;-89
2023/08/27 06:30:22;;;;;;;846.37;358.80;;;14.30;99.90;;;;;;5056011;28;20072;-88
2023/08/27 06:32:51;;;;;;;878.37;377.50;;;14.40;99.90;;;;;;5049127;28;20419;-94
2023/08/27 06:39:33;;;;;;;853.67;356.63;;;14.50;99.90;;;;;;4993183;28;20053;-93
2023/08/27 06:42:55;;;;;;;844.90;474.13;;;14.50;99.90;;;;;;4995863;28;20297;-92
2023/08/27 06:53:51;;;;;;;;;;;;;;;;;;;;;
2023/08/27 07:01:02;;;;;;;1138.67;480.87;;;14.60;99.90;;;;;;4850351;29;20462;-93
2023/08/27 07:07:02;;;;;;;1258.73;545.67;;;14.60;99.90;;;;;;5487920;22;20409;-91
2023/08/27 07:09:40;;;;;;;1182.63;468.93;;;14.60;99.90;;;;;;5048057;23;20064;-89
2023/08/27 07:12:15;;;;;;;1187.27;473.43;;;14.60;99.90;;;;;;5017095;28;20050;-89
2023/08/27 07:14:41;;;;;;;1179.20;468.25;;;14.70;99.90;;;;;;5050399;28;20041;-94
2023/08/27 07:17:14;;;;;;;1168.00;446.90;;;14.70;99.90;;;;;;5057097;28;20554;-93
2023/08/27 07:19:41;;;;;;;1250.90;535.83;;;14.80;99.90;;;;;;5040877;28;20306;-93
2023/08/27 07:22:12;;;;;;;1123.93;463.70;;;14.80;99.90;;;;;;5047000;28;20041;-93
2023/08/27 07:24:40;;;;;;;1218.60;533.23;;;14.90;99.90;;;;;;5059903;28;20296;-94
2023/08/27 07:27:18;;;;;;;991.83;361.13;;;14.90;99.90;;;;;;5062452;28;20319;-91
2023/08/27 07:37:14;;;;;;;956.50;439.77;;;14.90;99.90;;;;;;5052140;28;20314;-94
2023/08/27 07:39:40;;;;;;;1124.03;473.13;;;14.90;99.90;;;;;;5022520;28;20958;-93
2023/08/27 07:42:21;;;;;;;1172.80;545.13;;;14.90;99.90;;;;;;5068904;28;20045;-93
2023/08/27 07:44:58;;;;;;;1140.70;519.87;;;15.00;99.90;;;;;;5046630;28;20349;-93
2023/08/27 07:47:32;;;;;;;1088.57;448.70;;;15.00;99.90;;;;;;5028494;28;20314;-93
2023/08/27 07:50:00;;;;;;;1029.90;455.03;;;15.10;99.90;;;;;;5043888;28;20652;-94
2023/08/27 07:52:30;;;;;;;1024.63;519.60;;;15.10;99.90;;;;;;5031538;28;20859;-93
2023/08/27 07:54:57;;;;;;;1004.47;523.43;;;15.10;99.90;;;;;;5045634;28;20295;-93
2023/08/27 07:57:23;;;;;;;987.90;501.60;;;15.30;99.90;;;;;;5056699;28;20342;-92
2023/08/27 07:59:51;;;;;;;947.33;387.13;;;15.30;99.90;;;;;;5039759;28;20295;-93
2023/08/27 08:02:18;;;;;;;982.37;507.33;;;15.20;99.90;;;;;;5031211;28;20087;-94
2023/08/27 08:04:43;;;;;;;928.63;381.77;;;15.20;99.90;;;;;;5048223;28;20053;-94
2023/08/27 08:07:09;;;;;;;829.73;260.93;;;15.20;99.90;;;;;;5058284;28;20801;-94
2023/08/27 08:09:35;;;;;;;839.60;257.40;;;15.20;99.90;;;;;;5021656;28;20049;-94
2023/08/27 08:12:01;;;;;;;344.92;158.38;;;15.20;99.90;;;;;;5070589;28;20056;-93
2023/08/27 08:14:32;;;;;;;397.67;168.37;;;15.30;99.90;;;;;;5059492;28;20040;-93
2023/08/27 08:20:41;;;;;;;440.70;167.43;;;15.40;99.90;;;;;;5074928;28;20040;-92
2023/08/27 08:23:07;;;;;;;548.28;201.60;;;15.70;99.90;;;;;;5077167;28;20299;-93
2023/08/27 08:25:33;;;;;;;748.77;300.50;;;16.00;99.90;;;;;;5076445;28;20488;-92
2023/08/27 08:28:02;;;;;;;512.47;192.07;;;16.30;99.90;;;;;;5070288;28;20041;-93
2023/08/27 08:30:28;;;;;;;438.15;176.40;;;16.50;99.90;;;;;;5073643;28;20473;-93
2023/08/27 08:32:53;;;;;;;642.37;204.47;;;16.70;99.90;;;;;;5079185;28;20083;-92
2023/08/27 08:35:19;;;;;;;583.10;194.07;;;16.60;99.90;;;;;;5084806;28;20427;-91
2023/08/27 08:37:45;;;;;;;517.77;190.53;;;16.70;99.90;;;;;;5081973;28;20050;-88
2023/08/27 08:40:15;;;;;;;475.23;181.23;;;16.80;99.90;;;;;;5076266;28;20072;-89
2023/08/27 08:50:24;;;;;;;439.97;179.07;;;17.00;99.90;;;;;;5073432;28;20055;-90
2023/08/27 08:52:52;;;;;;;690.28;206.63;;;17.00;99.90;;;;;;5055185;28;20342;-89
2023/08/27 08:55:45;;;;;;;781.33;290.33;;;17.20;99.90;;;;;;5056484;28;20047;-88
2023/08/27 08:58:17;;;;;;;1028.80;565.75;;;17.40;99.90;;;;;;5052630;28;20309;-88
2023/08/27 09:00:46;;;;;;;1126.10;556.67;;;17.50;99.90;;;;;;5074030;28;20401;-91
2023/08/27 09:03:17;;;;;;;1094.33;592.63;;;17.70;99.90;;;;;;5072359;28;20045;-88
2023/08/27 09:06:26;;;;;;;834.63;456.87;;;17.90;99.90;;;;;;5052492;28;20056;-87
2023/08/27 09:09:18;;;;;;;;;;;;;;;;;;;;;
2023/08/27 09:12:07;;;;;;;;;;;;;;;;;;;;;
2023/08/27 09:15:02;;;;;;;742.93;442.80;;;18.50;99.90;;;;;;4992167;28;20359;-87
2023/08/27 09:21:08;;;;;;;577.47;191.13;;;18.90;99.90;;;;;;5014499;28;20323;-92
2023/08/27 09:23:37;;;;;;;602.93;194.23;;;19.10;99.90;;;;;;5013398;28;20317;-93
2023/08/27 09:26:05;;;;;;;722.57;338.80;;;19.30;99.90;;;;;;4997728;28;20129;-95
2023/08/27 09:28:33;;;;;;;738.07;316.33;;;19.40;99.90;;;;;;4992581;28;20320;-92
2023/08/27 09:31:01;;;;;;;699.47;385.83;;;19.40;99.90;;;;;;4983511;28;20126;-91
2023/08/27 09:33:45;;;;;;;738.57;271.90;;;19.60;99.90;;;;;;5015626;28;20057;-91
2023/08/27 09:36:13;;;;;;;649.60;193.90;;;19.80;99.90;;;;;;4984894;28;20085;-89
2023/08/27 09:38:46;;;;;;;723.20;336.53;;;20.00;99.90;;;;;;4995614;28;20108;-86
2023/08/27 09:41:27;;;;;;;699.43;218.10;;;20.00;99.90;;;;;;4998684;28;20296;-92
2023/08/27 09:43:53;;;;;;;701.20;199.83;;;20.10;99.90;;;;;;4984135;28;20117;-91
2023/08/27 09:50:03;;;;;;;627.63;204.20;;;20.20;99.90;;;;;;5067561;28;20309;-92
2023/08/27 09:52:29;;;;;;;645.23;212.10;;;20.20;99.90;;;;;;5078713;28;20311;-92
2023/08/27 09:54:55;;;;;;;401.10;168.77;;;20.30;99.90;;;;;;5078838;28;20332;-93
2023/08/27 09:57:21;;;;;;;394.60;170.33;;;20.30;99.90;;;;;;5067187;28;20400;-93
2023/08/27 09:59:48;;;;;;;296.90;157.90;;;20.50;99.90;;;;;;5065502;28;20080;-94
2023/08/27 10:02:15;;;;;;;286.30;155.17;;;20.60;99.90;;;;;;5068940;28;20040;-92
2023/08/27 10:04:55;;;;;;;276.80;153.87;;;20.60;99.90;;;;;;5075456;28;20519;-94
2023/08/27 10:07:21;;;;;;;283.30;155.90;;;20.80;99.90;;;;;;5072363;28;20089;-93
2023/08/27 10:09:51;;;;;;;297.07;158.20;;;21.00;99.90;;;;;;5073581;28;20048;-95
2023/08/27 10:12:19;;;;;;;293.17;159.53;;;21.20;99.90;;;;;;5072070;28;20090;-95
2023/08/27 10:14:46;;;;;;;275.13;153.25;;;21.30;99.90;;;;;;5074425;28;20052;-94
2023/08/27 10:17:12;;;;;;;302.57;158.33;;;21.40;99.90;;;;;;5057726;28;20112;-93
2023/08/27 10:19:38;;;;;;;285.43;157.30;;;21.60;99.90;;;;;;5062483;28;20044;-94
2023/08/27 10:22:05;;;;;;;687.40;284.93;;;21.60;99.90;;;;;;5043595;28;20079;-92
2023/08/27 10:24:32;;;;;;;1256.67;706.07;;;21.30;99.90;;;;;;5073570;28;20036;-93
2023/08/27 10:26:59;;;;;;;1237.30;690.10;;;21.00;99.90;;;;;;5056371;28;20044;-94
2023/08/27 10:29:27;;;;;;;1243.73;612.90;;;20.70;99.90;;;;;;5052926;28;20045;-94
2023/08/27 10:31:53;;;;;;;1194.53;615.67;;;20.60;99.90;;;;;;5055540;28;20123;-92
2023/08/27 10:34:23;;;;;;;1038.43;583.47;;;20.40;99.90;;;;;;5040611;28;20051;-94
2023/08/27 10:36:51;;;;;;;1247.13;626.77;;;20.40;99.90;;;;;;5039046;28;20028;-91
2023/08/27 10:39:20;;;;;;;1148.53;701.70;;;20.50;99.90;;;;;;5071696;28;20479;-92
2023/08/27 10:41:47;;;;;;;1076.63;611.20;;;20.80;99.90;;;;;;5055429;28;20086;-91
2023/08/27 10:44:19;;;;;;;1169.47;715.57;;;21.00;99.90;;;;;;5039125;28;20044;-93
2023/08/27 10:47:12;;;;;;;1060.43;720.60;;;21.40;99.90;;;;;;5049516;28;20392;-92
2023/08/27 10:49:40;;;;;;;943.00;649.30;;;21.70;99.90;;;;;;5066577;28;20115;-91
2023/08/27 10:52:13;;;;;;;1175.10;733.10;;;22.00;99.90;;;;;;5035543;28;20374;-92
2023/08/27 10:54:39;;;;;;;1219.68;659.67;;;22.40;99.90;;;;;;5065496;28;20049;-91
2023/08/27 10:57:20;;;;;;;1116.20;842.77;;;22.50;99.90;;;;;;5051537;28;20404;-89
2023/08/27 10:59:46;;;;;;;1028.90;744.63;;;22.50;99.90;;;;;;5055476;28;20631;-91
2023/08/27 11:02:14;;;;;;;1085.17;694.43;;;22.20;99.90;;;;;;5071757;28;20067;-86
2023/08/27 11:04:48;;;;;;;1158.73;742.57;;;22.10;99.90;;;;;;5055055;28;20555;-84
2023/08/27 11:07:15;;;;;;;1140.57;738.40;;;21.90;99.90;;;;;;5054469;28;20044;-88
2023/08/27 11:09:52;;;;;;;1153.47;656.83;;;21.80;99.90;;;;;;5052903;28;20045;-90
2023/08/27 11:12:27;;;;;;;1147.23;752.10;;;21.70;99.90;;;;;;5047297;28;20056;-91
2023/08/27 11:15:08;;;;;;;1118.33;713.70;;;21.70;99.90;;;;;;5040479;28;20052;-88
2023/08/27 11:21:38;;;;;;;981.77;737.60;;;21.60;99.90;;;;;;5079560;28;20452;-91
2023/08/27 11:24:23;;;;;;;1216.80;712.25;;;21.50;99.90;;;;;;5051408;28;20056;-91
2023/08/27 11:26:50;;;;;;;1164.43;775.17;;;21.40;99.90;;;;;;5059797;28;20044;-90
2023/08/27 11:29:16;;;;;;;872.97;646.27;;;21.20;99.90;;;;;;5058529;28;20076;-90
2023/08/27 11:31:43;;;;;;;936.23;608.87;;;21.10;99.90;;;;;;5059787;28;20044;-87
2023/08/27 11:34:14;;;;;;;888.63;550.83;;;21.00;99.90;;;;;;5076522;28;20048;-91
2023/08/27 11:36:44;;;;;;;944.50;669.70;;;21.00;99.90;;;;;;5040122;28;20119;-90
2023/08/27 11:39:14;;;;;;;814.20;577.07;;;20.90;99.90;;;;;;5075915;28;20117;-90
2023/08/27 11:41:44;;;;;;;962.60;657.27;;;20.90;99.90;;;;;;5042808;28;20121;-91
2023/08/27 11:44:10;;;;;;;1035.67;672.63;;;21.00;99.90;;;;;;5059503;28;20424;-87
2023/08/27 11:53:58;;;;;;;1081.13;626.47;;;21.10;99.90;;;;;;5077539;28;20055;-89
2023/08/27 11:56:25;;;;;;;1070.57;603.27;;;20.60;99.90;;;;;;5059538;28;20135;-91
2023/08/27 11:58:53;;;;;;;1069.47;561.47;;;20.50;99.90;;;;;;5058851;28;20059;-90
2023/08/27 12:01:24;;;;;;;1071.13;555.30;;;20.40;99.90;;;;;;5074749;28;20044;-92
2023/08/27 12:03:52;;;;;;;999.43;519.80;;;20.30;99.90;;;;;;5058655;28;20040;-91
2023/08/27 12:06:26;;;;;;;1039.40;601.87;;;20.10;99.90;;;;;;5046430;28;20048;-91
2023/08/27 12:08:53;;;;;;;1067.20;566.97;;;19.90;99.90;;;;;;5059527;28;20407;-87
2023/08/27 12:11:22;;;;;;;1027.10;526.70;;;19.80;99.90;;;;;;5041531;28;20389;-86
2023/08/27 12:13:56;;;;;;;1016.70;508.87;;;19.80;99.90;;;;;;5073730;28;20054;-92
2023/08/27 12:17:11;;;;;;;1034.90;522.20;;;19.80;99.90;;;;;;5075868;28;20123;-90
2023/08/27 12:19:42;;;;;;;1042.83;540.70;;;19.90;99.90;;;;;;4964989;28;20367;-89
2023/08/27 12:22:29;;;;;;;1168.63;553.73;;;19.90;99.90;;;;;;4978986;28;20066;-90
2023/08/27 12:29:02;;;;;;;1125.70;645.33;;;19.50;99.90;;;;;;4911057;29;20051;-92
2023/08/27 12:31:27;;;;;;;993.93;720.27;;;19.30;99.90;;;;;;4910192;29;20052;-88
2023/08/27 12:33:58;;;;;;;1007.57;682.10;;;19.00;99.90;;;;;;4919104;29;20088;-90
2023/08/27 12:36:25;;;;;;;979.53;608.10;;;18.90;99.90;;;;;;4904142;29;20070;-93
2023/08/27 12:38:51;;;;;;;1123.77;622.67;;;18.80;99.90;;;;;;4905461;29;20071;-91
2023/08/27 12:41:17;;;;;;;1112.73;686.77;;;18.60;99.90;;;;;;4906747;29;20048;-91
2023/08/27 12:43:43;;;;;;;1015.57;700.00;;;18.50;99.90;;;;;;4905879;29;20111;-89
2023/08/27 12:46:08;;;;;;;1050.63;689.07;;;18.30;99.90;;;;;;4904937;29;20055;-91
2023/08/27 12:48:37;;;;;;;1053.13;638.47;;;18.30;99.90;;;;;;4919442;29;20131;-91
2023/08/27 12:51:03;;;;;;;1058.20;594.57;;;18.30;99.90;;;;;;4903813;29;20115;-91
2023/08/27 12:53:28;;;;;;;1039.77;626.70;;;18.20;99.90;;;;;;4919350;29;20040;-93
2023/08/27 12:55:54;;;;;;;1086.07;611.07;;;18.30;99.90;;;;;;4911034;29;20492;-92
2023/08/27 12:58:20;;;;;;;1132.93;589.03;;;18.30;99.90;;;;;;4941891;29;20076;-92
2023/08/27 13:00:45;;;;;;;1127.87;625.23;;;18.30;99.90;;;;;;4940839;29;20043;-91
2023/08/27 13:14:13;;;;;;;1164.00;582.07;;;19.00;99.90;;;;;;5076403;28;20067;-92
2023/08/27 13:16:39;;;;;;;1143.17;578.90;;;19.50;99.90;;;;;;5058208;28;20455;-92
2023/08/27 13:19:05;;;;;;;1078.23;590.47;;;19.70;99.90;;;;;;5058001;28;20131;-92
2023/08/27 13:21:31;;;;;;;1070.87;622.30;;;20.00;99.90;;;;;;5058261;28;20048;-91
2023/08/27 13:23:57;;;;;;;1164.57;609.47;;;20.30;99.90;;;;;;5058260;28;20070;-92
2023/08/27 13:26:22;;;;;;;1178.47;698.53;;;20.60;99.90;;;;;;5057995;28;20048;-92
2023/08/27 13:28:48;;;;;;;1153.07;628.53;;;20.80;99.90;;;;;;5058349;28;20044;-91
2023/08/27 13:31:15;;;;;;;1219.00;629.63;;;21.00;99.90;;;;;;5058151;28;20051;-91
2023/08/27 13:33:42;;;;;;;1199.30;623.50;;;21.20;99.90;;;;;;5058153;28;20091;-91
2023/08/27 13:36:09;;;;;;;1171.83;628.83;;;21.40;99.90;;;;;;5040156;28;20045;-92
2023/08/27 13:38:34;;;;;;;1176.13;625.90;;;21.20;99.90;;;;;;5069546;28;20052;-92
2023/08/27 13:41:00;;;;;;;1205.77;708.63;;;21.30;99.90;;;;;;5055508;28;20057;-90
2023/08/27 13:43:26;;;;;;;1157.60;704.00;;;21.50;99.90;;;;;;5055802;28;20041;-92
2023/08/27 13:45:52;;;;;;;1194.87;703.83;;;21.60;99.90;;;;;;5055665;28;20146;-91
2023/08/27 13:48:18;;;;;;;1140.23;689.67;;;21.40;99.90;;;;;;5037928;28;20056;-93
2023/08/27 13:50:44;;;;;;;1127.83;686.20;;;21.20;99.90;;;;;;5061949;28;20041;-93
2023/08/27 13:53:09;;;;;;;1122.00;695.30;;;20.90;99.90;;;;;;5055760;28;20366;-92
2023/08/27 13:55:35;;;;;;;1131.30;620.10;;;20.70;99.90;;;;;;5054953;28;20041;-93
2023/08/27 13:58:01;;;;;;;1138.07;625.17;;;20.50;99.90;;;;;;5054278;28;20037;-88
2023/08/27 14:00:28;;;;;;;1202.23;629.83;;;20.40;99.90;;;;;;5055623;28;20040;-90
2023/08/27 14:02:54;;;;;;;1126.07;686.90;;;20.30;99.90;;;;;;5054868;28;20075;-91
2023/08/27 14:05:20;;;;;;;1171.90;701.87;;;20.20;99.90;;;;;;5053904;28;20041;-90
2023/08/27 14:07:46;;;;;;;1130.43;620.40;;;20.10;99.90;;;;;;5053587;28;20041;-90
2023/08/27 14:10:12;;;;;;;1128.07;679.30;;;20.10;99.90;;;;;;5055756;28;20082;-90
2023/08/27 14:12:37;;;;;;;1128.53;680.43;;;20.00;99.90;;;;;;5056577;28;20048;-91
2023/08/27 14:15:03;;;;;;;1147.23;617.20;;;20.00;99.90;;;;;;5074065;28;20131;-87
2023/08/27 14:17:29;;;;;;;1142.47;615.03;;;19.90;99.90;;;;;;5056309;28;20051;-88